AirNav   ProFlight Series 2 Aviation Headset
 
 1125 users online  

04SC Emergency Helipad
Easley, South Carolina, USA

GOING TO EASLEY?


FAA INFORMATION EFFECTIVE 16 JULY 2020

Location

FAA Identifier: 04SC
Lat/Long: 34-50-31.8800N 082-36-25.6400W
34-50.531333N 082-36.427333W
34.8421889,-82.6071222
(estimated)
Elevation: 994 ft. / 303 m (estimated)
Variation: 05W (2000)
Time zone: UTC -4 (UTC -5 during Standard Time)
Zip code: 29640

Heliport Operations

Heliport use: Private use, MEDICAL USE.
Activation date: 09/2002
Control tower: no
ARTCC: ATLANTA CENTER
FSS: ANDERSON FLIGHT SERVICE STATION
Attendance: UNATNDD
Wind indicator: yes
Segmented circle: no
Beacon: white-green-yellow (heliport)
HOSPITAL ACTIVATES ROTG BCN WHEN THE HOSPITAL INITIATES A REQUEST FOR AN EMS MISSION.

Heliport Communications

WX AWOS-3 at LQK (5 nm W): 120.0 (864-843-5801)
WX AWOS-3 at GYH (12 nm SE): 127.325 (864-277-5674)
WX ASOS at GMU (13 nm E): 127.075 (864-239-0014)
WX ASOS at CEU (17 nm SW): 119.275 (864-653-8855)
WX ASOS at GSP (19 nm E): 134.25 (864-879-0614)

Nearby radio navigation aids

VOR radial/distance  VOR name  Freq  Var
ELWr019/26.9ELECTRIC CITY VORTAC108.6000E
ODFr076/35.1FOOTHILLS VOR/DME113.4000E
SPAr253/35.4SPARTANBURG VORTAC115.7002W
SUGr208/37.7SUGARLOAF MOUNTAIN VORTAC112.2002W

 
NDB name  Hdg/Dist  Freq  Var  ID
DYANA322/12.133804WGY --. -.--
JUDKY291/13.252105WGM --. --
BROAD RIVER202/26.737907WBRA -... .-. .-
FAIRMONT268/30.824805WFRT ..-. .-. -

Heliport Services

Runway Information

Helipad H1

Dimensions: 50 x 50 ft. / 15 x 15 m
Surface: concrete
Latitude: 34-50.531333N
Longitude: 082-36.427333W
Elevation: 994.0 ft.
Traffic pattern: leftleft

Heliport Ownership and Management from official FAA records

Ownership: Privately-owned
Owner: BAPTIST EASLEY HOSPITAL
PO BOX 2129, 200 FLEETWOOD DR
EASLEY, SC 29641
Phone 864-442-7200
Manager: T BRIAN FINLEY
PO BOX 2129
EASLEY, SC 29641
Phone 864-442-7200

Additional Remarks

FOR CD CTC ATLANTA ARTCC AT 770-210-7692.

Instrument Procedures

There are no published instrument procedures at 04SC.

Some nearby airports with instrument procedures:

KLQK - Pickens County Airport (5 nm W)
KGYH - Donaldson Field Airport (12 nm SE)
KGMU - Greenville Downtown Airport (13 nm E)
KCEU - Oconee County Regional Airport (17 nm SW)
KGSP - Greenville Spartanburg International Airport (19 nm E)
 
Loc | Ops | Rwys | IFR | FBO | Links
Com | Nav | Svcs | Stats | Notes
Area around 04SC (Emergency Helipad)
 
Road maps at: MapQuest Bing Google
 
Aerial photo
No photo
 
Sectional chart

 
Airport distance calculator
Flying to Emergency Helipad? Find the distance to fly.

From to 04SC

Sunrise and sunset
Times for 09-Aug-2020
 Local
(UTC-4)
 Zulu
(UTC)
Morning civil twilight06:2110:21
Sunrise06:4810:48
Sunset20:2400:24
Evening civil twilight20:5100:51

Current date and time
Zulu (UTC)  09-Aug-2020 15:53:38
Local (UTC-4)  09-Aug-2020 11:53:38
 
METAR
KLQK 
5nm W 
091535Z AUTO 00000KT 10SM CLR 30/23 A3018 RMK AO2 T02970232
KGYH 
12nm SE 
091447Z 00000KT 10SM CLR 28/23 A3018
KGMU 
13nm E 
091453Z 00000KT 10SM CLR 29/22 A3019 RMK AO2 SLP212 T02940222 56002
KCEU 
17nm SW 
091454Z AUTO 00000KT 10SM CLR 27/21 A3019 RMK AO2 SLP212 T02720211 58000
KGSP 
20nm E 
091453Z 20003KT 10SM CLR 29/21 A3019 RMK AO2 SLP209 T02890211 57003
TAF
KGMU 
13nm E 
091135Z 0912/1012 35003KT P6SM FEW250 FM091800 21005KT P6SM VCSH FEW050 SCT250 FM092100 23004KT P6SM VCTS SCT060CB SCT250 PROB30 0921/0924 4SM TSRA BR BKN060CB BKN080 FM100100 26003KT P6SM FEW100 SCT250
KGSP 
20nm E 
091135Z 0912/1012 00000KT P6SM FEW250 FM091800 20003KT P6SM VCSH FEW045 SCT250 FM092100 23004KT P6SM VCTS SCT060CB SCT250 PROB30 0921/0924 4SM TSRA BR BKN060CB BKN090 FM101000 19003KT P6SM FEW100 SCT250
NOTAMs
Click for the latest NOTAMs
NOTAMs are issued by the DoD/FAA and will open in a separate window not controlled by AirNav.

 

 
 

Would you like to see your business listed on this page?

 If your business provides an interesting product or service to pilots, flight crews, aircraft, or users of the Emergency Helipad, you should consider listing it here.  To start the listing process, click on the button below
 
Add a business
 

Other Pages about Emergency Helipad

Update a link
 
Copyright © AirNav, LLC. All rights reserved. Privacy Policy  Contact